sensor_id;sensor_type;location;lat;lon;timestamp;temperature;humidity
33109;HTU21D;19481;51.118;6.940;2022-09-06T00:03:57;21.58;39.30
33109;HTU21D;19481;51.118;6.940;2022-09-06T00:08:59;21.66;39.00
33109;HTU21D;19481;51.118;6.940;2022-09-06T00:14:02;21.72;38.82
33109;HTU21D;19481;51.118;6.940;2022-09-06T00:19:03;21.73;38.69
33109;HTU21D;19481;51.118;6.940;2022-09-06T00:24:05;21.75;38.57
33109;HTU21D;19481;51.118;6.940;2022-09-06T00:29:08;21.77;39.60
33109;HTU21D;19481;51.118;6.940;2022-09-06T00:34:09;21.70;38.67
33109;HTU21D;19481;51.118;6.940;2022-09-06T00:39:11;21.80;38.49
33109;HTU21D;19481;51.118;6.940;2022-09-06T00:44:14;21.80;39.57
33109;HTU21D;19481;51.118;6.940;2022-09-06T00:49:19;21.46;40.80
33109;HTU21D;19481;51.118;6.940;2022-09-06T00:54:24;21.16;41.73
33109;HTU21D;19481;51.118;6.940;2022-09-06T00:59:30;20.98;42.88
33109;HTU21D;19481;51.118;6.940;2022-09-06T01:04:33;20.84;43.06
33109;HTU21D;19481;51.118;6.940;2022-09-06T01:09:49;20.72;47.69
33109;HTU21D;19481;51.118;6.940;2022-09-06T01:15:07;20.59;45.37
33109;HTU21D;19481;51.118;6.940;2022-09-06T01:20:26;20.63;47.53
33109;HTU21D;19481;51.118;6.940;2022-09-06T01:25:35;20.54;45.22
33109;HTU21D;19481;51.118;6.940;2022-09-06T01:30:45;20.31;51.49
33109;HTU21D;19481;51.118;6.940;2022-09-06T01:35:49;20.07;47.22
33109;HTU21D;19481;51.118;6.940;2022-09-06T01:40:53;19.91;46.94
33109;HTU21D;19481;51.118;6.940;2022-09-06T01:46:01;19.66;49.16
33109;HTU21D;19481;51.118;6.940;2022-09-06T01:51:12;19.43;53.75
33109;HTU21D;19481;51.118;6.940;2022-09-06T01:56:23;19.32;53.00
33109;HTU21D;19481;51.118;6.940;2022-09-06T02:01:37;19.41;50.92
33109;HTU21D;19481;51.118;6.940;2022-09-06T02:06:44;19.30;53.49
33109;HTU21D;19481;51.118;6.940;2022-09-06T02:11:49;19.18;51.23
33109;HTU21D;19481;51.118;6.940;2022-09-06T02:16:54;19.28;51.45
33109;HTU21D;19481;51.118;6.940;2022-09-06T02:21:57;19.14;52.05
33109;HTU21D;19481;51.118;6.940;2022-09-06T02:26:59;19.13;52.33
33109;HTU21D;19481;51.118;6.940;2022-09-06T02:32:06;19.12;53.72
33109;HTU21D;19481;51.118;6.940;2022-09-06T02:37:11;19.12;52.92
33109;HTU21D;19481;51.118;6.940;2022-09-06T02:42:14;19.13;53.23
33109;HTU21D;19481;51.118;6.940;2022-09-06T02:47:18;19.11;53.33
33109;HTU21D;19481;51.118;6.940;2022-09-06T02:52:19;19.10;53.55
33109;HTU21D;19481;51.118;6.940;2022-09-06T02:57:21;19.10;53.86
33109;HTU21D;19481;51.118;6.940;2022-09-06T03:02:24;19.15;53.97
33109;HTU21D;19481;51.118;6.940;2022-09-06T03:07:26;19.14;54.12
33109;HTU21D;19481;51.118;6.940;2022-09-06T03:12:27;19.05;54.39
33109;HTU21D;19481;51.118;6.940;2022-09-06T03:17:30;19.05;54.53
33109;HTU21D;19481;51.118;6.940;2022-09-06T03:22:32;18.98;54.78
33109;HTU21D;19481;51.118;6.940;2022-09-06T03:27:34;18.86;55.35
33109;HTU21D;19481;51.118;6.940;2022-09-06T03:32:37;18.83;56.23
33109;HTU21D;19481;51.118;6.940;2022-09-06T03:37:38;18.85;60.39
33109;HTU21D;19481;51.118;6.940;2022-09-06T03:42:40;18.82;55.97
33109;HTU21D;19481;51.118;6.940;2022-09-06T03:47:43;18.86;56.11
33109;HTU21D;19481;51.118;6.940;2022-09-06T03:52:45;18.84;56.03
33109;HTU21D;19481;51.118;6.940;2022-09-06T03:57:46;18.79;56.38
33109;HTU21D;19481;51.118;6.940;2022-09-06T04:02:49;18.72;56.76
33109;HTU21D;19481;51.118;6.940;2022-09-06T04:07:51;18.68;56.80
33109;HTU21D;19481;51.118;6.940;2022-09-06T04:12:53;18.62;56.94
33109;HTU21D;19481;51.118;6.940;2022-09-06T04:17:56;18.47;57.52
33109;HTU21D;19481;51.118;6.940;2022-09-06T04:22:57;18.40;57.64
33109;HTU21D;19481;51.118;6.940;2022-09-06T04:27:59;18.30;58.00
33109;HTU21D;19481;51.118;6.940;2022-09-06T04:33:02;18.22;58.31
33109;HTU21D;19481;51.118;6.940;2022-09-06T04:38:04;18.20;58.20
33109;HTU21D;19481;51.118;6.940;2022-09-06T04:43:05;18.11;58.54
33109;HTU21D;19481;51.118;6.940;2022-09-06T04:48:08;18.07;58.77
33109;HTU21D;19481;51.118;6.940;2022-09-06T04:53:10;18.03;58.74
33109;HTU21D;19481;51.118;6.940;2022-09-06T04:58:11;17.91;59.03
33109;HTU21D;19481;51.118;6.940;2022-09-06T05:03:14;17.96;58.95
33109;HTU21D;19481;51.118;6.940;2022-09-06T05:08:16;17.97;58.92
33109;HTU21D;19481;51.118;6.940;2022-09-06T05:13:18;17.96;59.01
33109;HTU21D;19481;51.118;6.940;2022-09-06T05:18:21;17.96;59.31
33109;HTU21D;19481;51.118;6.940;2022-09-06T05:23:23;17.93;59.33
33109;HTU21D;19481;51.118;6.940;2022-09-06T05:28:25;17.99;59.21
33109;HTU21D;19481;51.118;6.940;2022-09-06T05:33:28;18.10;58.98
33109;HTU21D;19481;51.118;6.940;2022-09-06T05:38:30;18.22;58.56
33109;HTU21D;19481;51.118;6.940;2022-09-06T05:43:31;18.34;58.34
33109;HTU21D;19481;51.118;6.940;2022-09-06T05:48:35;18.51;57.88
33109;HTU21D;19481;51.118;6.940;2022-09-06T05:53:38;18.62;57.80
33109;HTU21D;19481;51.118;6.940;2022-09-06T05:58:40;18.72;57.64
33109;HTU21D;19481;51.118;6.940;2022-09-06T06:03:49;18.85;57.86
33109;HTU21D;19481;51.118;6.940;2022-09-06T06:08:51;18.98;57.12
33109;HTU21D;19481;51.118;6.940;2022-09-06T06:13:54;19.16;56.91
33109;HTU21D;19481;51.118;6.940;2022-09-06T06:18:57;19.35;56.54
33109;HTU21D;19481;51.118;6.940;2022-09-06T06:24:00;21.59;51.14
33109;HTU21D;19481;51.118;6.940;2022-09-06T06:29:02;24.69;46.12
33109;HTU21D;19481;51.118;6.940;2022-09-06T06:34:06;26.27;45.33
33109;HTU21D;19481;51.118;6.940;2022-09-06T06:39:09;25.58;49.75
33109;HTU21D;19481;51.118;6.940;2022-09-06T06:44:10;25.59;51.11
33109;HTU21D;19481;51.118;6.940;2022-09-06T06:49:13;26.83;48.20
33109;HTU21D;19481;51.118;6.940;2022-09-06T06:54:15;28.05;45.63
33109;HTU21D;19481;51.118;6.940;2022-09-06T06:59:17;27.95;46.39
33109;HTU21D;19481;51.118;6.940;2022-09-06T07:04:21;29.00;40.78
33109;HTU21D;19481;51.118;6.940;2022-09-06T07:09:22;28.79;44.74
33109;HTU21D;19481;51.118;6.940;2022-09-06T07:14:25;29.59;41.16
33109;HTU21D;19481;51.118;6.940;2022-09-06T07:19:28;29.12;43.53
33109;HTU21D;19481;51.118;6.940;2022-09-06T07:24:30;30.02;41.22
33109;HTU21D;19481;51.118;6.940;2022-09-06T07:29:31;30.78;39.49
33109;HTU21D;19481;51.118;6.940;2022-09-06T07:34:35;30.77;38.65
33109;HTU21D;19481;51.118;6.940;2022-09-06T07:39:38;30.96;39.27
33109;HTU21D;19481;51.118;6.940;2022-09-06T07:44:40;30.56;39.85
33109;HTU21D;19481;51.118;6.940;2022-09-06T07:49:43;30.77;38.43
33109;HTU21D;19481;51.118;6.940;2022-09-06T07:54:45;30.42;38.48
33109;HTU21D;19481;51.118;6.940;2022-09-06T07:59:47;30.63;37.85
33109;HTU21D;19481;51.118;6.940;2022-09-06T08:04:50;31.00;35.05
33109;HTU21D;19481;51.118;6.940;2022-09-06T08:09:52;29.12;40.36
33109;HTU21D;19481;51.118;6.940;2022-09-06T08:14:54;29.82;38.30
33109;HTU21D;19481;51.118;6.940;2022-09-06T08:19:57;30.61;35.67
33109;HTU21D;19481;51.118;6.940;2022-09-06T08:24:59;30.90;34.89
33109;HTU21D;19481;51.118;6.940;2022-09-06T08:30:00;30.85;31.48
33109;HTU21D;19481;51.118;6.940;2022-09-06T08:35:04;31.83;31.33
33109;HTU21D;19481;51.118;6.940;2022-09-06T08:40:06;30.99;33.65
33109;HTU21D;19481;51.118;6.940;2022-09-06T08:45:10;28.78;36.84
33109;HTU21D;19481;51.118;6.940;2022-09-06T08:50:17;28.65;33.25
33109;HTU21D;19481;51.118;6.940;2022-09-06T08:55:29;29.39;30.38
33109;HTU21D;19481;51.118;6.940;2022-09-06T09:00:35;29.91;33.30
33109;HTU21D;19481;51.118;6.940;2022-09-06T09:05:40;28.97;34.73
33109;HTU21D;19481;51.118;6.940;2022-09-06T09:10:46;29.39;33.27
33109;HTU21D;19481;51.118;6.940;2022-09-06T09:15:48;29.50;30.77
33109;HTU21D;19481;51.118;6.940;2022-09-06T09:20:51;29.38;32.18
33109;HTU21D;19481;51.118;6.940;2022-09-06T09:25:54;28.82;33.15
33109;HTU21D;19481;51.118;6.940;2022-09-06T09:30:59;30.00;30.71
33109;HTU21D;19481;51.118;6.940;2022-09-06T09:36:06;30.24;28.40
33109;HTU21D;19481;51.118;6.940;2022-09-06T09:41:09;30.61;29.68
33109;HTU21D;19481;51.118;6.940;2022-09-06T09:46:16;30.96;29.80
33109;HTU21D;19481;51.118;6.940;2022-09-06T09:51:30;30.76;30.38
33109;HTU21D;19481;51.118;6.940;2022-09-06T09:56:50;30.72;27.20
33109;HTU21D;19481;51.118;6.940;2022-09-06T10:01:54;31.64;28.35
33109;HTU21D;19481;51.118;6.940;2022-09-06T10:07:09;31.81;24.59
33109;HTU21D;19481;51.118;6.940;2022-09-06T10:12:26;32.71;25.43
33109;HTU21D;19481;51.118;6.940;2022-09-06T10:17:31;32.02;28.56
33109;HTU21D;19481;51.118;6.940;2022-09-06T10:22:46;31.36;25.08
33109;HTU21D;19481;51.118;6.940;2022-09-06T10:28:03;32.18;26.36
33109;HTU21D;19481;51.118;6.940;2022-09-06T10:33:10;32.30;26.61
33109;HTU21D;19481;51.118;6.940;2022-09-06T10:38:31;32.12;24.04
33109;HTU21D;19481;51.118;6.940;2022-09-06T10:43:42;32.86;25.60
33109;HTU21D;19481;51.118;6.940;2022-09-06T10:48:46;32.03;27.87
33109;HTU21D;19481;51.118;6.940;2022-09-06T10:53:53;32.87;26.11
33109;HTU21D;19481;51.118;6.940;2022-09-06T10:58:58;33.43;25.70
33109;HTU21D;19481;51.118;6.940;2022-09-06T11:04:05;33.80;25.07
33109;HTU21D;19481;51.118;6.940;2022-09-06T11:09:15;33.44;24.45
33109;HTU21D;19481;51.118;6.940;2022-09-06T11:14:19;33.30;26.28
33109;HTU21D;19481;51.118;6.940;2022-09-06T11:19:27;33.72;25.56
33109;HTU21D;19481;51.118;6.940;2022-09-06T11:24:43;33.44;23.71
33109;HTU21D;19481;51.118;6.940;2022-09-06T11:29:48;33.30;26.65
33109;HTU21D;19481;51.118;6.940;2022-09-06T11:34:56;33.33;26.37
33109;HTU21D;19481;51.118;6.940;2022-09-06T11:40:13;33.92;22.08
33109;HTU21D;19481;51.118;6.940;2022-09-06T11:45:18;33.87;25.56
33109;HTU21D;19481;51.118;6.940;2022-09-06T11:56:15;32.62;23.63
33109;HTU21D;19481;51.118;6.940;2022-09-06T12:01:58;33.52;23.97
33109;HTU21D;19481;51.118;6.940;2022-09-06T12:07:08;33.80;23.80
33109;HTU21D;19481;51.118;6.940;2022-09-06T12:12:10;34.42;24.34
33109;HTU21D;19481;51.118;6.940;2022-09-06T12:17:22;35.25;20.77
33109;HTU21D;19481;51.118;6.940;2022-09-06T12:22:49;35.07;21.31
33109;HTU21D;19481;51.118;6.940;2022-09-06T12:27:52;34.71;24.49
33109;HTU21D;19481;51.118;6.940;2022-09-06T12:32:57;33.79;26.01
33109;HTU21D;19481;51.118;6.940;2022-09-06T12:38:02;32.99;27.39
33109;HTU21D;19481;51.118;6.940;2022-09-06T12:43:04;32.60;27.59
33109;HTU21D;19481;51.118;6.940;2022-09-06T12:48:09;32.40;27.49
33109;HTU21D;19481;51.118;6.940;2022-09-06T12:53:19;32.81;25.30
33109;HTU21D;19481;51.118;6.940;2022-09-06T12:58:27;31.87;26.71
33109;HTU21D;19481;51.118;6.940;2022-09-06T13:03:34;31.74;27.23
33109;HTU21D;19481;51.118;6.940;2022-09-06T13:08:41;32.71;25.87
33109;HTU21D;19481;51.118;6.940;2022-09-06T13:13:47;32.90;25.85
33109;HTU21D;19481;51.118;6.940;2022-09-06T13:18:50;33.71;24.68
33109;HTU21D;19481;51.118;6.940;2022-09-06T13:23:53;33.48;25.23
33109;HTU21D;19481;51.118;6.940;2022-09-06T13:28:55;33.87;24.24
33109;HTU21D;19481;51.118;6.940;2022-09-06T13:33:59;34.21;23.16
33109;HTU21D;19481;51.118;6.940;2022-09-06T13:39:01;34.15;23.53
33109;HTU21D;19481;51.118;6.940;2022-09-06T13:44:04;34.45;23.01
33109;HTU21D;19481;51.118;6.940;2022-09-06T13:49:08;34.50;22.95
33109;HTU21D;19481;51.118;6.940;2022-09-06T13:54:12;34.83;22.42
33109;HTU21D;19481;51.118;6.940;2022-09-06T13:59:15;34.67;22.79
33109;HTU21D;19481;51.118;6.940;2022-09-06T14:04:19;34.76;22.64
33109;HTU21D;19481;51.118;6.940;2022-09-06T14:09:21;34.49;23.04
33109;HTU21D;19481;51.118;6.940;2022-09-06T14:14:23;34.17;23.50
33109;HTU21D;19481;51.118;6.940;2022-09-06T14:19:26;33.92;23.62
33109;HTU21D;19481;51.118;6.940;2022-09-06T14:24:28;33.65;24.07
33109;HTU21D;19481;51.118;6.940;2022-09-06T14:29:29;33.70;23.79
33109;HTU21D;19481;51.118;6.940;2022-09-06T14:34:33;33.66;23.43
33109;HTU21D;19481;51.118;6.940;2022-09-06T14:39:35;33.45;23.37
33109;HTU21D;19481;51.118;6.940;2022-09-06T14:44:36;33.34;23.27
33109;HTU21D;19481;51.118;6.940;2022-09-06T14:49:39;33.15;22.82
33109;HTU21D;19481;51.118;6.940;2022-09-06T14:54:41;33.29;22.76
33109;HTU21D;19481;51.118;6.940;2022-09-06T14:59:42;33.22;22.53
33109;HTU21D;19481;51.118;6.940;2022-09-06T15:04:45;33.15;22.06
33109;HTU21D;19481;51.118;6.940;2022-09-06T15:09:47;33.27;21.39
33109;HTU21D;19481;51.118;6.940;2022-09-06T15:14:50;32.34;22.18
33109;HTU21D;19481;51.118;6.940;2022-09-06T15:19:53;32.87;21.02
33109;HTU21D;19481;51.118;6.940;2022-09-06T15:24:55;32.98;20.84
33109;HTU21D;19481;51.118;6.940;2022-09-06T15:29:57;32.76;20.84
33109;HTU21D;19481;51.118;6.940;2022-09-06T15:34:59;32.55;20.74
33109;HTU21D;19481;51.118;6.940;2022-09-06T15:40:02;32.31;20.88
33109;HTU21D;19481;51.118;6.940;2022-09-06T15:45:04;32.20;20.65
33109;HTU21D;19481;51.118;6.940;2022-09-06T15:50:08;32.29;19.48
33109;HTU21D;19481;51.118;6.940;2022-09-06T15:55:10;32.18;19.78
33109;HTU21D;19481;51.118;6.940;2022-09-06T16:00:29;32.09;19.63
33109;HTU21D;19481;51.118;6.940;2022-09-06T16:05:34;32.02;18.91
33109;HTU21D;19481;51.118;6.940;2022-09-06T16:10:37;32.00;19.12
33109;HTU21D;19481;51.118;6.940;2022-09-06T16:15:38;31.64;19.58
33109;HTU21D;19481;51.118;6.940;2022-09-06T16:20:42;31.40;19.89
33109;HTU21D;19481;51.118;6.940;2022-09-06T16:25:46;31.31;19.90
33109;HTU21D;19481;51.118;6.940;2022-09-06T16:30:48;31.04;20.32
33109;HTU21D;19481;51.118;6.940;2022-09-06T16:35:52;30.90;19.78
33109;HTU21D;19481;51.118;6.940;2022-09-06T16:40:53;30.78;20.44
33109;HTU21D;19481;51.118;6.940;2022-09-06T16:45:56;30.61;20.52
33109;HTU21D;19481;51.118;6.940;2022-09-06T16:51:09;30.62;18.49
33109;HTU21D;19481;51.118;6.940;2022-09-06T16:56:12;30.35;20.80
33109;HTU21D;19481;51.118;6.940;2022-09-06T17:01:14;30.19;20.97
33109;HTU21D;19481;51.118;6.940;2022-09-06T17:06:18;29.78;21.51
33109;HTU21D;19481;51.118;6.940;2022-09-06T17:11:20;29.70;21.56
33109;HTU21D;19481;51.118;6.940;2022-09-06T17:16:23;29.41;21.82
33109;HTU21D;19481;51.118;6.940;2022-09-06T17:21:43;29.21;22.00
33109;HTU21D;19481;51.118;6.940;2022-09-06T17:26:47;29.13;22.21
33109;HTU21D;19481;51.118;6.940;2022-09-06T17:31:48;29.09;22.29
33109;HTU21D;19481;51.118;6.940;2022-09-06T17:36:51;29.00;22.49
33109;HTU21D;19481;51.118;6.940;2022-09-06T17:41:53;28.85;22.83
33109;HTU21D;19481;51.118;6.940;2022-09-06T17:46:54;28.62;23.24
33109;HTU21D;19481;51.118;6.940;2022-09-06T17:51:58;28.61;23.30
33109;HTU21D;19481;51.118;6.940;2022-09-06T17:56:59;28.53;23.55
33109;HTU21D;19481;51.118;6.940;2022-09-06T18:02:01;28.32;23.94
33109;HTU21D;19481;51.118;6.940;2022-09-06T18:07:04;28.17;24.19
33109;HTU21D;19481;51.118;6.940;2022-09-06T18:12:06;27.87;24.80
33109;HTU21D;19481;51.118;6.940;2022-09-06T18:17:08;27.78;24.97
33109;HTU21D;19481;51.118;6.940;2022-09-06T18:22:11;27.64;25.25
33109;HTU21D;19481;51.118;6.940;2022-09-06T18:27:13;27.47;25.62
33109;HTU21D;19481;51.118;6.940;2022-09-06T18:32:15;27.37;25.95
33109;HTU21D;19481;51.118;6.940;2022-09-06T18:37:18;27.17;26.42
33109;HTU21D;19481;51.118;6.940;2022-09-06T18:42:20;27.12;26.50
33109;HTU21D;19481;51.118;6.940;2022-09-06T18:47:22;27.04;26.68
33109;HTU21D;19481;51.118;6.940;2022-09-06T18:52:25;26.90;27.11
33109;HTU21D;19481;51.118;6.940;2022-09-06T18:57:27;26.66;27.48
33109;HTU21D;19481;51.118;6.940;2022-09-06T19:02:29;26.64;27.57
33109;HTU21D;19481;51.118;6.940;2022-09-06T19:07:33;26.63;27.56
33109;HTU21D;19481;51.118;6.940;2022-09-06T19:12:58;26.55;27.54
33109;HTU21D;19481;51.118;6.940;2022-09-06T19:18:24;26.52;27.58
33109;HTU21D;19481;51.118;6.940;2022-09-06T19:23:27;26.38;27.94
33109;HTU21D;19481;51.118;6.940;2022-09-06T19:28:30;26.33;30.29
33109;HTU21D;19481;51.118;6.940;2022-09-06T19:33:32;26.39;30.04
33109;HTU21D;19481;51.118;6.940;2022-09-06T19:38:35;26.42;28.64
33109;HTU21D;19481;51.118;6.940;2022-09-06T19:43:37;26.41;28.84
33109;HTU21D;19481;51.118;6.940;2022-09-06T19:48:43;26.35;30.83
33109;HTU21D;19481;51.118;6.940;2022-09-06T19:53:48;26.28;30.03
33109;HTU21D;19481;51.118;6.940;2022-09-06T19:58:52;26.24;29.94
33109;HTU21D;19481;51.118;6.940;2022-09-06T20:03:54;26.22;30.19
33109;HTU21D;19481;51.118;6.940;2022-09-06T20:08:58;26.15;30.64
33109;HTU21D;19481;51.118;6.940;2022-09-06T20:14:00;26.10;30.82
33109;HTU21D;19481;51.118;6.940;2022-09-06T20:19:02;26.05;31.08
33109;HTU21D;19481;51.118;6.940;2022-09-06T20:24:05;25.97;31.49
33109;HTU21D;19481;51.118;6.940;2022-09-06T20:29:07;25.87;31.72
33109;HTU21D;19481;51.118;6.940;2022-09-06T20:34:09;25.75;32.15
33109;HTU21D;19481;51.118;6.940;2022-09-06T20:39:15;25.68;34.82
33109;HTU21D;19481;51.118;6.940;2022-09-06T20:44:16;25.58;32.54
33109;HTU21D;19481;51.118;6.940;2022-09-06T20:49:19;25.46;32.83
33109;HTU21D;19481;51.118;6.940;2022-09-06T20:54:23;25.36;33.89
33109;HTU21D;19481;51.118;6.940;2022-09-06T20:59:25;25.27;33.23
33109;HTU21D;19481;51.118;6.940;2022-09-06T21:04:26;25.18;33.59
33109;HTU21D;19481;51.118;6.940;2022-09-06T21:09:29;25.04;35.14
33109;HTU21D;19481;51.118;6.940;2022-09-06T21:14:31;24.69;35.10
33109;HTU21D;19481;51.118;6.940;2022-09-06T21:19:33;24.51;35.18
33109;HTU21D;19481;51.118;6.940;2022-09-06T21:24:36;24.38;35.63
33109;HTU21D;19481;51.118;6.940;2022-09-06T21:29:39;24.23;35.90
33109;HTU21D;19481;51.118;6.940;2022-09-06T21:34:40;24.05;36.24
33109;HTU21D;19481;51.118;6.940;2022-09-06T21:39:43;23.90;37.53
33109;HTU21D;19481;51.118;6.940;2022-09-06T21:44:45;23.89;36.63
33109;HTU21D;19481;51.118;6.940;2022-09-06T21:49:46;23.83;37.16
33109;HTU21D;19481;51.118;6.940;2022-09-06T21:54:49;23.84;40.88
33109;HTU21D;19481;51.118;6.940;2022-09-06T21:59:51;23.86;36.95
33109;HTU21D;19481;51.118;6.940;2022-09-06T22:04:52;23.95;36.63
33109;HTU21D;19481;51.118;6.940;2022-09-06T22:09:55;24.01;37.36
33109;HTU21D;19481;51.118;6.940;2022-09-06T22:14:57;24.12;35.98
33109;HTU21D;19481;51.118;6.940;2022-09-06T22:19:59;24.27;35.88
33109;HTU21D;19481;51.118;6.940;2022-09-06T22:25:02;24.48;34.76
33109;HTU21D;19481;51.118;6.940;2022-09-06T22:30:04;24.59;34.29
33109;HTU21D;19481;51.118;6.940;2022-09-06T22:35:07;24.56;34.35
33109;HTU21D;19481;51.118;6.940;2022-09-06T22:40:10;24.47;34.53
33109;HTU21D;19481;51.118;6.940;2022-09-06T22:45:12;24.42;34.53
33109;HTU21D;19481;51.118;6.940;2022-09-06T22:50:14;24.41;34.44
33109;HTU21D;19481;51.118;6.940;2022-09-06T22:55:17;24.34;34.68
33109;HTU21D;19481;51.118;6.940;2022-09-06T23:00:19;24.24;34.79
33109;HTU21D;19481;51.118;6.940;2022-09-06T23:05:20;24.14;34.99
33109;HTU21D;19481;51.118;6.940;2022-09-06T23:10:23;24.09;35.00
33109;HTU21D;19481;51.118;6.940;2022-09-06T23:15:25;24.04;35.08
33109;HTU21D;19481;51.118;6.940;2022-09-06T23:20:26;23.45;38.23
33109;HTU21D;19481;51.118;6.940;2022-09-06T23:25:30;22.20;45.26
33109;HTU21D;19481;51.118;6.940;2022-09-06T23:30:31;19.62;49.97
33109;HTU21D;19481;51.118;6.940;2022-09-06T23:35:36;18.87;51.82
33109;HTU21D;19481;51.118;6.940;2022-09-06T23:40:39;18.52;52.51
33109;HTU21D;19481;51.118;6.940;2022-09-06T23:45:41;18.29;52.75
33109;HTU21D;19481;51.118;6.940;2022-09-06T23:50:43;18.30;52.62
33109;HTU21D;19481;51.118;6.940;2022-09-06T23:55:46;18.27;54.31
